Map

Track Data

SID SEASON NUMBER BASIN SUBBASIN NAME ISO_TIME NATURE LAT LON WMO_WIND WMO_PRES WMO_AGENCY TRACK_TYPE DIST2LAND LANDFALL IFLAG USA_AGENCY USA_ATCF_ID USA_LAT USA_LON USA_RECORD USA_STATUS USA_WIND USA_PRES USA_SSHS USA_R34_NE USA_R34_SE USA_R34_SW USA_R34_NW USA_R50_NE USA_R50_SE USA_R50_SW USA_R50_NW USA_R64_NE USA_R64_SE USA_R64_SW USA_R64_NW USA_POCI USA_ROCI USA_RMW USA_EYE TOKYO_LAT TOKYO_LON TOKYO_GRADE TOKYO_WIND TOKYO_PRES TOKYO_R50_DIR TOKYO_R50_LONG TOKYO_R50_SHORT TOKYO_R30_DIR TOKYO_R30_LONG TOKYO_R30_SHORT TOKYO_LAND CMA_LAT CMA_LON CMA_CAT CMA_WIND CMA_PRES HKO_LAT HKO_LON HKO_CAT HKO_WIND HKO_PRES NEWDELHI_LAT NEWDELHI_LON NEWDELHI_GRADE NEWDELHI_WIND NEWDELHI_PRES NEWDELHI_CI NEWDELHI_DP NEWDELHI_POCI REUNION_LAT REUNION_LON REUNION_TYPE REUNION_WIND REUNION_PRES REUNION_TNUM REUNION_CI REUNION_RMW REUNION_R34_NE REUNION_R34_SE REUNION_R34_SW REUNION_R34_NW REUNION_R50_NE REUNION_R50_SE REUNION_R50_SW REUNION_R50_NW REUNION_R64_NE REUNION_R64_SE REUNION_R64_SW REUNION_R64_NW BOM_LAT BOM_LON BOM_TYPE BOM_WIND BOM_PRES BOM_TNUM BOM_CI BOM_RMW BOM_R34_NE BOM_R34_SE BOM_R34_SW BOM_R34_NW BOM_R50_NE BOM_R50_SE BOM_R50_SW BOM_R50_NW BOM_R64_NE BOM_R64_SE BOM_R64_SW BOM_R64_NW BOM_ROCI BOM_POCI BOM_EYE BOM_POS_METHOD BOM_PRES_METHOD NADI_LAT NADI_LON NADI_CAT NADI_WIND NADI_PRES WELLINGTON_LAT WELLINGTON_LON WELLINGTON_WIND WELLINGTON_PRES DS824_LAT DS824_LON DS824_STAGE DS824_WIND DS824_PRES TD9636_LAT TD9636_LON TD9636_STAGE TD9636_WIND TD9636_PRES TD9635_LAT TD9635_LON TD9635_WIND TD9635_PRES TD9635_ROCI NEUMANN_LAT NEUMANN_LON NEUMANN_CLASS NEUMANN_WIND NEUMANN_PRES MLC_LAT MLC_LON MLC_CLASS MLC_WIND MLC_PRES USA_GUST BOM_GUST BOM_GUST_PER REUNION_GUST REUNION_GUST_PER USA_SEAHGT USA_SEARAD_NE USA_SEARAD_SE USA_SEARAD_SW USA_SEARAD_NW STORM_SPEED STORM_DIR
1935276N14150 1935 58 WP MM NOT_NAMED 1935-10-02 21:00:00 NR 13.9000 149.800 main 1811 1810 __________O___ -1 13.9000 149.800 2 9 300
1935276N14150 1935 58 WP MM NOT_NAMED 1935-10-03 00:00:00 NR 14.1164 149.413 main 1828 1828 __________P___ -1 14.1164 149.413 2 9 303
1935276N14150 1935 58 WP MM NOT_NAMED 1935-10-03 03:00:00 NR 14.3759 149.040 main 1856 1856 __________P___ -1 14.3759 149.040 2 9 311
1935276N14150 1935 58 WP MM NOT_NAMED 1935-10-03 06:00:00 NR 14.7224 148.697 main 1887 1887 __________P___ -1 14.7224 148.697 2 10 323
1935276N14150 1935 58 WP MM NOT_NAMED 1935-10-03 09:00:00 NR 15.2000 148.400 main 1941 1941 __________O___ -1 15.2000 148.400 4 12 335
1935276N14150 1935 58 WP MM NOT_NAMED 1935-10-03 12:00:00 NR 15.8309 148.157 main 2007 2007 __________P___ -1 15.8309 148.157 4 14 342
1935276N14150 1935 58 WP MM NOT_NAMED 1935-10-03 15:00:00 NR 16.5496 147.955 main 2084 2084 __________P___ -1 16.5496 147.955 4 15 346
1935276N14150 1935 58 WP MM NOT_NAMED 1935-10-03 18:00:00 NR 17.2686 147.776 main 2115 2045 __________P___ -1 17.2686 147.776 4 14 346
1935276N14150 1935 58 WP MM NOT_NAMED 1935-10-03 21:00:00 NR 17.9000 147.600 main 2045 1996 __________O___ -1 17.9000 147.600 4 11 341
1935276N14150 1935 58 WP MM NOT_NAMED 1935-10-04 00:00:00 NR 18.3133 147.387 main 1996 1957 __________P___ -1 18.3133 147.387 4 8 331
1935276N14150 1935 58 WP MM NOT_NAMED 1935-10-04 03:00:00 NR 18.6324 147.177 main 1957 1918 __________P___ -1 18.6324 147.177 4 7 327
1935276N14150 1935 58 WP MM NOT_NAMED 1935-10-04 06:00:00 NR 18.9103 146.978 main 1918 1879 __________P___ -1 18.9103 146.978 4 7 328
1935276N14150 1935 58 WP MM NOT_NAMED 1935-10-04 09:00:00 NR 19.2000 146.800 main 1879 1834 __________O___ -1 19.2000 146.800 4 7 336
1935276N14150 1935 58 WP MM NOT_NAMED 1935-10-04 12:00:00 NR 19.5742 146.669 main 1834 1799 __________P___ -1 19.5742 146.669 4 8 343
1935276N14150 1935 58 WP MM NOT_NAMED 1935-10-04 15:00:00 NR 19.9697 146.557 main 1788 1739 __________P___ -1 19.9697 146.557 4 8 345
1935276N14150 1935 58 WP MM NOT_NAMED 1935-10-04 18:00:00 NR 20.3804 146.441 main 1739 1693 __________P___ -1 20.3804 146.441 4 9 344
1935276N14150 1935 58 WP MM NOT_NAMED 1935-10-04 21:00:00 NR 20.8000 146.300 main 1693 1644 __________O___ -1 20.8000 146.300 4 9 341
1935276N14150 1935 58 WP MM NOT_NAMED 1935-10-05 00:00:00 NR 21.2013 146.131 main 1644 1595 __________P___ -1 21.2013 146.131 4 9 337
1935276N14150 1935 58 WP MM NOT_NAMED 1935-10-05 03:00:00 NR 21.6121 145.931 main 1595 1546 __________P___ -1 21.6121 145.931 4 9 334
1935276N14150 1935 58 WP MM NOT_NAMED 1935-10-05 06:00:00 NR 22.0418 145.690 main 1546 1483 __________P___ -1 22.0418 145.690 4 10 331
1935276N14150 1935 58 WP MM NOT_NAMED 1935-10-05 09:00:00 NR 22.5000 145.400 main 1483 1417 __________O___ -1 22.5000 145.400 4 12 326
1935276N14150 1935 58 WP MM NOT_NAMED 1935-10-05 12:00:00 NR 23.0176 144.980 main 1417 1347 __________P___ -1 23.0176 144.980 4 13 323
1935276N14150 1935 58 WP MM NOT_NAMED 1935-10-05 15:00:00 NR 23.5590 144.521 main 1337 1271 __________P___ -1 23.5590 144.521 4 14 323
1935276N14150 1935 58 WP MM NOT_NAMED 1935-10-05 18:00:00 NR 24.0957 144.102 main 1271 1209 __________P___ -1 24.0957 144.102 4 12 328
1935276N14150 1935 58 WP MM NOT_NAMED 1935-10-05 21:00:00 NR 24.6000 143.800 main 1209 1174 __________O___ -1 24.6000 143.800 4 9 332
1935276N14150 1935 58 WP MM NOT_NAMED 1935-10-06 00:00:00 NR 24.8848 143.650 main 1174 1149 __________P___ -1 24.8848 143.650 4 6 345
1935276N14150 1935 58 WP MM NOT_NAMED 1935-10-06 03:00:00 NR 25.1589 143.636 main 1139 1110 __________P___ -1 25.1589 143.636 4 7 8
1935276N14150 1935 58 WP MM NOT_NAMED 1935-10-06 06:00:00 NR 25.5536 143.754 main 1102 1046 __________P___ -1 25.5536 143.754 4 11 17
1935276N14150 1935 58 WP MM NOT_NAMED 1935-10-06 09:00:00 NR 26.2000 144.000 main 1046 955 __________O___ -1 26.2000 144.000 4 18 18
1935276N14150 1935 58 WP MM NOT_NAMED 1935-10-06 12:00:00 NR 27.2609 144.366 main 949 850 __________P___ -1 27.2609 144.366 4 25 18
1935276N14150 1935 58 WP MM NOT_NAMED 1935-10-06 15:00:00 NR 28.5756 144.859 main 846 753 __________P___ -1 28.5756 144.859 4 29 19
1935276N14150 1935 58 WP MM NOT_NAMED 1935-10-06 18:00:00 NR 30.0272 145.423 main 744 670 __________P___ -1 30.0272 145.423 4 31 19
1935276N14150 1935 58 WP MM NOT_NAMED 1935-10-06 21:00:00 NR 31.5000 146.000 main 662 596 __________O___ -1 31.5000 146.000 4 27 14
1935276N14150 1935 58 WP MM NOT_NAMED 1935-10-07 00:00:00 NR 32.6695 146.176 main 590 540 __________P___ -1 32.6695 146.176 4 24 8
1935276N14150 1935 58 WP MM NOT_NAMED 1935-10-07 03:00:00 NR 33.8630 146.390 main 539 528 __________P___ -1 33.8630 146.390 4 26 13
1935276N14150 1935 58 WP MM NOT_NAMED 1935-10-07 06:00:00 NR 35.2005 146.903 main 545 543 __________P___ -1 35.2005 146.903 4 32 24
1935276N14150 1935 58 WP MM NOT_NAMED 1935-10-07 09:00:00 NR 36.8000 148.000 main 595 595 __________O___ -1 36.8000 148.000 4 43 35
1935276N14150 1935 58 WP MM NOT_NAMED 1935-10-07 12:00:00 NR 38.7320 149.935 main 621 579 __________P___ -1 38.7320 149.935 4 55 42
1935276N14150 1935 58 WP MM NOT_NAMED 1935-10-07 15:00:00 NR 40.9047 152.674 main 575 537 __________P___ -1 40.9047 152.674 4 64 46
1935276N14150 1935 58 WP MM NOT_NAMED 1935-10-07 18:00:00 NR 43.1752 156.089 main 552 552 __________P___ -1 43.1752 156.089 4 70 50
1935276N14150 1935 58 WP MM NOT_NAMED 1935-10-07 21:00:00 NR 45.4000 160.000 main 613 __________O___ -1 45.4000 160.000 4 71 51

Digital Typhoon Data and Search

About IBTrACS Database

This database is a web-friendly format of International Best Track Archive for Climate Stewardship (IBTrACS), a global best track data archive curated by NOAA dating back to 1842.

Updated: 2021-10-08